createdAt,value
2019-01-24T00:00:43.087Z,-1.65
2019-01-24T00:03:12.377Z,-1.65
2019-01-24T00:05:41.504Z,-1.71
2019-01-24T00:08:11.096Z,-1.87
2019-01-24T00:10:40.150Z,-1.82
2019-01-24T00:13:10.911Z,-1.87
2019-01-24T00:15:40.146Z,-2.01
2019-01-24T00:18:09.535Z,-1.91
2019-01-24T00:20:38.747Z,-1.82
2019-01-24T00:23:08.102Z,-1.96
2019-01-24T00:25:37.261Z,-2.01
2019-01-24T00:28:06.381Z,-2.06
2019-01-24T00:30:35.983Z,-2.12
2019-01-24T00:33:05.286Z,-2.17
2019-01-24T00:35:34.418Z,-2.06
2019-01-24T00:38:03.621Z,-1.99
2019-01-24T00:40:32.920Z,-1.99
2019-01-24T00:43:03.102Z,-2.13
2019-01-24T00:45:32.237Z,-2.13
2019-01-24T00:48:01.481Z,-2.20
2019-01-24T00:50:30.606Z,-2.09
2019-01-24T00:52:59.930Z,-2.11
2019-01-24T00:55:29.107Z,-2.05
2019-01-24T00:57:58.171Z,-2.14
2019-01-24T01:00:28.176Z,-2.08
2019-01-24T01:02:57.359Z,-1.97
2019-01-24T01:05:26.643Z,-1.97
2019-01-24T01:07:55.857Z,-2.12
2019-01-24T01:10:25.006Z,-1.98
2019-01-24T01:12:54.364Z,-2.01
2019-01-24T01:15:23.750Z,-2.06
2019-01-24T01:17:52.893Z,-2.01
2019-01-24T01:20:23.711Z,-1.97
2019-01-24T01:22:53.117Z,-1.91
2019-01-24T01:25:22.312Z,-1.91
2019-01-24T01:27:53.360Z,-1.96
2019-01-24T01:30:24.289Z,-1.96
2019-01-24T01:32:54.084Z,-1.95
2019-01-24T01:35:23.265Z,-1.87
2019-01-24T01:37:52.463Z,-1.83
2019-01-24T01:40:21.572Z,-1.86
2019-01-24T01:42:51.150Z,-1.79
2019-01-24T01:45:22.031Z,-1.76
2019-01-24T01:47:51.167Z,-1.81
2019-01-24T01:50:22.283Z,-1.74
2019-01-24T01:52:51.604Z,-1.60
2019-01-24T01:55:20.837Z,-1.55
2019-01-24T01:57:49.899Z,-1.56
2019-01-24T02:00:27.603Z,-1.54
2019-01-24T02:02:56.724Z,-1.45
2019-01-24T02:05:25.998Z,-1.52
2019-01-24T02:07:55.590Z,-1.40
2019-01-24T02:10:26.344Z,-1.45
2019-01-24T02:12:55.452Z,-1.45
2019-01-24T02:15:24.551Z,-1.57
2019-01-24T02:17:53.661Z,-1.51
2019-01-24T02:20:23.860Z,-1.57
2019-01-24T02:22:53.346Z,-1.53
2019-01-24T02:25:22.686Z,-1.60
2019-01-24T02:27:51.782Z,-1.67
2019-01-24T02:30:26.286Z,-1.71
2019-01-24T02:32:55.695Z,-1.73
2019-01-24T02:35:25.012Z,-1.69
2019-01-24T02:37:54.363Z,-1.68
2019-01-24T02:40:23.540Z,-1.65
2019-01-24T02:42:52.637Z,-1.64
2019-01-24T02:45:23.007Z,-1.64
2019-01-24T02:47:52.301Z,-1.68
2019-01-24T02:50:22.300Z,-1.63
2019-01-24T02:52:53.231Z,-1.60
2019-01-24T02:55:22.569Z,-1.58
2019-01-24T02:57:51.669Z,-1.61
2019-01-24T03:00:22.399Z,-1.60
2019-01-24T03:02:52.167Z,-1.66
2019-01-24T03:05:22.632Z,-1.73
2019-01-24T03:07:51.825Z,-1.70
2019-01-24T03:10:20.955Z,-1.74
2019-01-24T03:12:50.392Z,-1.77
2019-01-24T03:15:21.304Z,-1.77
2019-01-24T03:17:50.807Z,-1.80
2019-01-24T03:20:20.071Z,-1.77
2019-01-24T03:22:49.154Z,-1.78
2019-01-24T03:25:18.646Z,-1.76
2019-01-24T03:27:48.235Z,-1.74
2019-01-24T03:30:19.514Z,-1.77
2019-01-24T03:32:48.810Z,-1.76
2019-01-24T03:35:20.280Z,-1.78
2019-01-24T03:37:49.404Z,-1.75
2019-01-24T03:40:18.783Z,-1.70
2019-01-24T03:42:47.868Z,-1.48
2019-01-24T03:45:17.580Z,-1.53
2019-01-24T03:47:46.927Z,-1.53
2019-01-24T03:50:19.319Z,-1.56
2019-01-24T03:52:48.509Z,-1.58
2019-01-24T03:55:19.434Z,-1.60
2019-01-24T03:57:48.925Z,-1.62
2019-01-24T04:00:24.955Z,-1.57
2019-01-24T04:02:54.163Z,-1.62
2019-01-24T04:05:24.032Z,-1.64
2019-01-24T04:07:53.402Z,-1.70
2019-01-24T04:10:22.964Z,-1.68
2019-01-24T04:12:52.081Z,-1.66
2019-01-24T04:15:26.617Z,-1.68
2019-01-24T04:17:55.972Z,-1.63
2019-01-24T04:20:25.358Z,-1.60
2019-01-24T04:22:54.689Z,-1.56
2019-01-24T04:25:23.783Z,-1.54
2019-01-24T04:27:53.111Z,-1.56
2019-01-24T04:30:25.122Z,-1.60
2019-01-24T04:32:54.536Z,-1.58
2019-01-24T04:35:23.781Z,-1.56
2019-01-24T04:37:52.867Z,-1.57
2019-01-24T04:40:22.124Z,-1.61
2019-01-24T04:42:51.324Z,-1.59
2019-01-24T04:45:20.442Z,-1.59
2019-01-24T04:47:49.737Z,-1.58
2019-01-24T04:50:19.300Z,-1.58
2019-01-24T04:52:48.358Z,-1.62
2019-01-24T04:55:21.344Z,-1.61
2019-01-24T04:57:50.861Z,-1.61
2019-01-24T05:00:30.806Z,-1.64
2019-01-24T05:03:00.158Z,-1.67
2019-01-24T05:05:29.267Z,-1.65
2019-01-24T05:07:58.389Z,-1.68
2019-01-24T05:10:27.788Z,-1.60
2019-01-24T05:12:57.010Z,-1.60
2019-01-24T05:15:26.120Z,-1.61
2019-01-24T05:17:55.395Z,-1.60
2019-01-24T05:20:24.681Z,-1.60
2019-01-24T05:22:53.921Z,-1.56
2019-01-24T05:25:23.020Z,-1.59
2019-01-24T05:27:52.072Z,-1.58
2019-01-24T05:30:26.349Z,-1.55
2019-01-24T05:32:56.133Z,-1.57
2019-01-24T05:35:25.879Z,-1.59
2019-01-24T05:37:55.023Z,-1.57
2019-01-24T05:40:24.109Z,-1.57
2019-01-24T05:42:53.265Z,-1.55
2019-01-24T05:45:22.423Z,-1.55
2019-01-24T05:47:52.449Z,-1.54
2019-01-24T05:50:21.742Z,-1.53
2019-01-24T05:52:50.933Z,-1.48
2019-01-24T05:55:20.452Z,-1.51
2019-01-24T05:57:49.601Z,-1.52
2019-01-24T06:00:25.914Z,-1.59
2019-01-24T06:02:55.169Z,-1.59
2019-01-24T06:05:24.700Z,-1.57
2019-01-24T06:07:54.042Z,-1.55
2019-01-24T06:10:23.320Z,-1.54
2019-01-24T06:12:52.524Z,-1.55
2019-01-24T06:15:21.740Z,-1.57
2019-01-24T06:17:50.909Z,-1.54
2019-01-24T06:20:20.017Z,-1.58
2019-01-24T06:22:51.513Z,-1.59
2019-01-24T06:25:20.870Z,-1.59
2019-01-24T06:27:50.070Z,-1.60
2019-01-24T06:30:20.993Z,-1.55
2019-01-24T06:32:50.123Z,-1.58
2019-01-24T06:35:19.563Z,-1.55
2019-01-24T06:37:49.020Z,-1.53
2019-01-24T06:40:18.146Z,-1.52
2019-01-24T06:42:47.258Z,-1.51
2019-01-24T06:45:18.644Z,-1.53
2019-01-24T06:47:47.975Z,-1.51
2019-01-24T06:50:18.074Z,-1.47
2019-01-24T06:52:47.172Z,-1.47
2019-01-24T06:55:28.039Z,-1.48
2019-01-24T06:57:57.136Z,-1.50
2019-01-24T07:00:26.319Z,-1.50
2019-01-24T07:02:55.755Z,-1.48
2019-01-24T07:05:24.933Z,-1.47
2019-01-24T07:07:54.183Z,-1.46
2019-01-24T07:10:23.550Z,-1.47
2019-01-24T07:12:52.657Z,-1.47
2019-01-24T07:15:24.045Z,-1.50
2019-01-24T07:17:53.130Z,-1.53
2019-01-24T07:20:22.421Z,-1.53
2019-01-24T07:22:51.498Z,-1.56
2019-01-24T07:25:22.808Z,-1.55
2019-01-24T07:27:52.238Z,-1.52
2019-01-24T07:30:21.825Z,-1.47
2019-01-24T07:32:51.150Z,-1.49
2019-01-24T07:35:20.388Z,-1.49
2019-01-24T07:37:49.482Z,-1.41
2019-01-24T07:40:19.208Z,-1.39
2019-01-24T07:42:49.485Z,-1.40
2019-01-24T07:45:27.842Z,-1.43
2019-01-24T07:47:57.039Z,-1.47
2019-01-24T07:50:26.318Z,-1.47
2019-01-24T07:52:55.421Z,-1.50
2019-01-24T07:55:24.682Z,-1.50
2019-01-24T07:57:53.998Z,-1.50
2019-01-24T08:00:26.037Z,-1.47
2019-01-24T08:02:55.323Z,-1.42
2019-01-24T08:05:25.091Z,-1.38
2019-01-24T08:07:54.606Z,-1.33
2019-01-24T08:10:24.133Z,-1.33
2019-01-24T08:12:53.212Z,-1.37
2019-01-24T08:15:22.468Z,-1.36
2019-01-24T08:17:51.598Z,-1.35
2019-01-24T08:20:23.306Z,-1.35
2019-01-24T08:22:52.549Z,-1.35
2019-01-24T08:25:21.715Z,-1.32
2019-01-24T08:27:50.755Z,-1.26
2019-01-24T08:30:33.210Z,-1.27
2019-01-24T08:33:02.641Z,-1.27
2019-01-24T08:35:31.683Z,-1.30
2019-01-24T08:38:00.984Z,-1.30
2019-01-24T08:40:30.206Z,-1.28
2019-01-24T08:42:59.401Z,-1.26
2019-01-24T08:45:28.625Z,-1.22
2019-01-24T08:47:57.834Z,-1.21
2019-01-24T08:50:27.611Z,-1.16
2019-01-24T08:52:56.701Z,-1.20
2019-01-24T08:55:28.458Z,-1.20
2019-01-24T08:57:57.683Z,-1.19
2019-01-24T09:00:26.874Z,-1.16
2019-01-24T09:02:56.137Z,-1.11
2019-01-24T09:05:25.284Z,-1.14
2019-01-24T09:07:54.675Z,-1.15
2019-01-24T09:10:26.696Z,-1.09
2019-01-24T09:12:56.051Z,-1.05
2019-01-24T09:15:25.536Z,-1.00
2019-01-24T09:17:54.585Z,-0.95
2019-01-24T09:20:23.680Z,-0.89
2019-01-24T09:22:55.288Z,-0.80
2019-01-24T09:25:23.963Z,-0.82
2019-01-24T09:27:53.217Z,-0.80
2019-01-24T09:30:24.525Z,-0.80
2019-01-24T09:32:53.693Z,-0.76
2019-01-24T09:35:22.799Z,-0.65
2019-01-24T09:37:51.916Z,-0.59
2019-01-24T09:40:21.510Z,-0.55
2019-01-24T09:42:50.570Z,-0.61
2019-01-24T09:45:28.552Z,-0.62
2019-01-24T09:47:59.662Z,-0.61
2019-01-24T09:50:29.174Z,-0.57
2019-01-24T09:52:58.239Z,-0.58
2019-01-24T09:55:27.307Z,-0.54
2019-01-24T09:57:58.013Z,-0.47
2019-01-24T10:00:31.542Z,-0.45
2019-01-24T10:03:01.195Z,-0.39
2019-01-24T10:05:30.370Z,-0.33
2019-01-24T10:07:59.722Z,-0.20
2019-01-24T10:10:28.939Z,-0.22
2019-01-24T10:12:58.827Z,-0.30
2019-01-24T10:15:28.018Z,-0.32
2019-01-24T10:17:57.283Z,-0.30
2019-01-24T10:20:27.411Z,-0.26
2019-01-24T10:22:56.940Z,-0.29
2019-01-24T10:25:32.061Z,-0.30
2019-01-24T10:28:01.177Z,-0.21
2019-01-24T10:30:30.281Z,-0.09
2019-01-24T10:32:59.598Z,-0.11
2019-01-24T10:35:28.629Z,-0.11
2019-01-24T10:37:57.726Z,-0.20
2019-01-24T10:40:28.907Z,-0.19
2019-01-24T10:42:58.330Z,-0.21
2019-01-24T10:45:27.419Z,-0.26
2019-01-24T10:47:56.537Z,-0.27
2019-01-24T10:50:26.189Z,-0.25
2019-01-24T10:52:55.359Z,-0.24
2019-01-24T10:55:26.791Z,-0.23
2019-01-24T10:57:58.203Z,-0.21
2019-01-24T11:00:30.745Z,-0.09
2019-01-24T11:02:59.823Z,-0.07
2019-01-24T11:05:29.028Z,-0.20
2019-01-24T11:07:58.142Z,-0.27
2019-01-24T11:10:27.475Z,-0.25
2019-01-24T11:12:56.589Z,-0.25
2019-01-24T11:15:25.869Z,-0.23
2019-01-24T11:17:56.507Z,-0.31
2019-01-24T11:20:25.566Z,-0.37
2019-01-24T11:22:54.626Z,-0.43
2019-01-24T11:25:24.611Z,-0.46
2019-01-24T11:27:53.799Z,-0.39
2019-01-24T11:30:27.938Z,-0.37
2019-01-24T11:32:57.161Z,-0.47
2019-01-24T11:35:28.887Z,-0.43
2019-01-24T11:37:57.927Z,-0.44
2019-01-24T11:40:27.248Z,-0.43
2019-01-24T11:42:56.317Z,-0.45
2019-01-24T11:45:28.143Z,-0.48
2019-01-24T11:47:57.536Z,-0.45
2019-01-24T11:50:26.958Z,-0.45
2019-01-24T11:52:56.041Z,-0.48
2019-01-24T11:55:25.490Z,-0.50
2019-01-24T11:57:54.560Z,-0.51
2019-01-24T12:00:28.403Z,-0.43
2019-01-24T12:02:57.621Z,-0.41
2019-01-24T12:05:27.044Z,-0.38
2019-01-24T12:07:56.080Z,-0.39
2019-01-24T12:10:26.144Z,-0.31
2019-01-24T12:12:55.571Z,-0.24
2019-01-24T12:15:25.674Z,-0.25
2019-01-24T12:17:55.122Z,-0.27
2019-01-24T12:20:25.111Z,-0.31
2019-01-24T12:22:54.307Z,-0.22
2019-01-24T12:25:23.630Z,-0.26
2019-01-24T12:27:52.739Z,-0.19
2019-01-24T12:30:24.357Z,-0.16
2019-01-24T12:32:53.424Z,-0.04
2019-01-24T12:35:22.571Z,-0.05
2019-01-24T12:37:51.697Z,-0.11
2019-01-24T12:40:20.872Z,-0.18
2019-01-24T12:42:50.057Z,-0.18
2019-01-24T12:45:21.774Z,-0.24
2019-01-24T12:47:50.884Z,-0.29
2019-01-24T12:50:20.110Z,-0.29
2019-01-24T12:52:49.269Z,-0.31
2019-01-24T12:55:18.690Z,-0.28
2019-01-24T12:57:47.825Z,-0.23
2019-01-24T13:00:19.836Z,-0.28
2019-01-24T13:02:50.837Z,-0.25
2019-01-24T13:05:20.052Z,-0.25
2019-01-24T13:07:49.158Z,-0.21
2019-01-24T13:10:20.595Z,-0.16
2019-01-24T13:12:49.894Z,-0.24
2019-01-24T13:15:20.028Z,-0.28
2019-01-24T13:17:49.160Z,-0.27
2019-01-24T13:20:18.337Z,-0.24
2019-01-24T13:22:47.415Z,-0.29
2019-01-24T13:25:19.499Z,-0.31
2019-01-24T13:27:48.762Z,-0.36
2019-01-24T13:30:23.512Z,-0.10
2019-01-24T13:32:52.601Z,-0.11
2019-01-24T13:35:21.708Z,-0.15
2019-01-24T13:37:50.834Z,-0.24
2019-01-24T13:40:25.264Z,-0.28
2019-01-24T13:42:54.377Z,-0.33
2019-01-24T13:45:27.421Z,-0.33
2019-01-24T13:47:56.489Z,-0.27
2019-01-24T13:50:25.682Z,-0.27
2019-01-24T13:52:54.776Z,-0.36
2019-01-24T13:55:24.093Z,-0.40
2019-01-24T13:57:53.205Z,-0.43
2019-01-24T14:00:34.109Z,-0.50
2019-01-24T14:03:29.722Z,-0.49
2019-01-24T14:05:59.002Z,-0.58
2019-01-24T14:08:28.158Z,-0.54
2019-01-24T14:10:58.100Z,-0.58
2019-01-24T14:13:27.514Z,-0.53
2019-01-24T14:15:56.662Z,-0.51
2019-01-24T14:18:25.792Z,-0.52
2019-01-24T14:20:55.059Z,-0.50
2019-01-24T14:23:24.587Z,-0.47
2019-01-24T14:25:53.767Z,-0.52
2019-01-24T14:28:22.855Z,-0.51
2019-01-24T14:30:52.166Z,-0.49
2019-01-24T14:33:21.465Z,-0.42
2019-01-24T14:35:50.885Z,-0.39
2019-01-24T14:38:20.126Z,-0.45
2019-01-24T14:40:49.342Z,-0.58
2019-01-24T14:43:18.466Z,-0.62
2019-01-24T14:45:47.662Z,-0.64
2019-01-24T14:48:16.884Z,-0.58
2019-01-24T14:50:46.082Z,-0.57
2019-01-24T14:53:15.783Z,-0.59
2019-01-24T14:55:45.078Z,-0.64
2019-01-24T14:58:14.453Z,-0.64
2019-01-24T15:00:48.063Z,-0.65
2019-01-24T15:03:17.737Z,-0.65
2019-01-24T15:05:46.871Z,-0.66
2019-01-24T15:08:16.179Z,-0.65
2019-01-24T15:10:45.405Z,-0.68
2019-01-24T15:13:14.757Z,-0.68
2019-01-24T15:15:43.973Z,-0.74
2019-01-24T15:18:13.084Z,-0.70
2019-01-24T15:20:42.359Z,-0.72
2019-01-24T15:23:11.611Z,-0.72
2019-01-24T15:25:40.752Z,-0.70
2019-01-24T15:28:09.960Z,-0.74
2019-01-24T15:30:39.062Z,-0.70
2019-01-24T15:33:08.410Z,-0.67
2019-01-24T15:35:38.764Z,-0.72
2019-01-24T15:38:08.063Z,-0.64
2019-01-24T15:40:37.416Z,-0.69
2019-01-24T15:43:07.082Z,-0.74
2019-01-24T15:45:36.544Z,-0.73
2019-01-24T15:48:06.801Z,-0.80
2019-01-24T15:50:36.013Z,-0.77
2019-01-24T15:53:06.100Z,-0.81
2019-01-24T15:55:35.225Z,-0.81
2019-01-24T15:58:04.801Z,-0.88
2019-01-24T16:00:34.232Z,-0.88
2019-01-24T16:03:03.381Z,-0.84
2019-01-24T16:05:33.179Z,-0.84
2019-01-24T16:08:08.556Z,-0.92
2019-01-24T16:10:38.029Z,-0.95
2019-01-24T16:13:07.520Z,-0.97
2019-01-24T16:15:43.098Z,-0.95
2019-01-24T16:18:13.706Z,-0.92
2019-01-24T16:20:43.021Z,-0.92
2019-01-24T16:23:12.265Z,-0.95
2019-01-24T16:25:41.589Z,-0.97
2019-01-24T16:28:10.738Z,-0.94
2019-01-24T16:30:39.887Z,-0.96
2019-01-24T16:33:09.890Z,-0.97
2019-01-24T16:35:40.413Z,-0.98
2019-01-24T16:38:09.918Z,-0.99
2019-01-24T16:40:39.154Z,-1.02
2019-01-24T16:43:08.522Z,-1.07
2019-01-24T16:45:37.621Z,-1.18
2019-01-24T16:48:08.421Z,-1.08
2019-01-24T16:50:38.348Z,-1.12
2019-01-24T16:53:07.841Z,-1.14
2019-01-24T16:55:37.204Z,-1.05
2019-01-24T16:58:07.687Z,-0.99
2019-01-24T17:00:55.830Z,-0.88
2019-01-24T17:03:25.516Z,-0.98
2019-01-24T17:05:54.843Z,-1.00
2019-01-24T17:08:24.121Z,-1.08
2019-01-24T17:10:53.456Z,-1.10
2019-01-24T17:13:22.743Z,-1.14
2019-01-24T17:15:51.985Z,-1.11
2019-01-24T17:18:21.338Z,-1.15
2019-01-24T17:20:50.900Z,-1.23
2019-01-24T17:23:20.174Z,-1.39
2019-01-24T17:25:49.301Z,-1.35
2019-01-24T17:28:18.588Z,-1.39
2019-01-24T17:30:47.878Z,-1.41
2019-01-24T17:33:17.041Z,-1.38
2019-01-24T17:35:46.307Z,-1.31
2019-01-24T17:38:16.274Z,-1.40
2019-01-24T17:40:46.026Z,-1.38
2019-01-24T17:43:15.672Z,-1.32
2019-01-24T17:45:45.018Z,-1.27
2019-01-24T17:48:14.772Z,-1.23
2019-01-24T17:50:44.377Z,-1.11
2019-01-24T17:53:14.042Z,-1.07
2019-01-24T17:55:45.591Z,-1.09
2019-01-24T17:58:15.003Z,-1.12
2019-01-24T18:00:48.560Z,-1.12
2019-01-24T18:03:18.008Z,-1.14
2019-01-24T18:05:47.469Z,-1.05
2019-01-24T18:08:16.885Z,-1.07
2019-01-24T18:10:46.191Z,-1.06
2019-01-24T18:13:15.540Z,-1.09
2019-01-24T18:15:44.887Z,-1.13
2019-01-24T18:18:15.612Z,-1.19
2019-01-24T18:20:46.667Z,-1.20
2019-01-24T18:23:19.965Z,-1.25
2019-01-24T18:25:49.248Z,-1.30
2019-01-24T18:28:18.672Z,-1.35
2019-01-24T18:30:49.277Z,-1.40
2019-01-24T18:33:20.568Z,-1.40
2019-01-24T18:35:51.070Z,-1.40
2019-01-24T18:38:21.559Z,-1.38
2019-01-24T18:40:51.430Z,-1.41
2019-01-24T18:43:23.774Z,-1.35
2019-01-24T18:45:57.013Z,-1.30
2019-01-24T18:48:26.181Z,-1.27
2019-01-24T18:50:56.350Z,-1.29
2019-01-24T18:53:25.635Z,-1.32
2019-01-24T18:55:54.939Z,-1.34
2019-01-24T18:58:24.471Z,-1.34
2019-01-24T19:00:53.857Z,-1.34
2019-01-24T19:03:23.099Z,-1.32
2019-01-24T19:05:52.334Z,-1.22
2019-01-24T19:08:21.772Z,-1.18
2019-01-24T19:10:51.269Z,-1.20
2019-01-24T19:13:20.610Z,-1.23
2019-01-24T19:15:51.205Z,-1.23
2019-01-24T19:18:20.396Z,-1.23
2019-01-24T19:20:49.695Z,-1.20
2019-01-24T19:23:18.890Z,-1.25
2019-01-24T19:25:48.046Z,-1.57
2019-01-24T19:28:18.803Z,-1.26
2019-01-24T19:30:50.823Z,-1.24
2019-01-24T19:33:20.412Z,-1.30
2019-01-24T19:35:50.225Z,-1.32
2019-01-24T19:38:19.934Z,-1.33
2019-01-24T19:40:49.975Z,-1.35
2019-01-24T19:43:19.430Z,-1.40
2019-01-24T19:45:49.772Z,-1.40
2019-01-24T19:48:20.021Z,-1.42
2019-01-24T19:50:50.111Z,-1.40
2019-01-24T19:53:20.082Z,-1.31
2019-01-24T19:55:50.919Z,-1.27
2019-01-24T19:58:20.976Z,-1.33
2019-01-24T20:00:50.647Z,-1.32
2019-01-24T20:03:20.904Z,-1.34
2019-01-24T20:05:50.563Z,-1.34
2019-01-24T20:08:20.317Z,-1.29
2019-01-24T20:10:49.849Z,-1.26
2019-01-24T20:13:19.778Z,-1.31
2019-01-24T20:15:50.099Z,-1.29
2019-01-24T20:18:21.119Z,-1.33
2019-01-24T20:20:51.794Z,-1.31
2019-01-24T20:23:21.589Z,-1.36
2019-01-24T20:25:51.363Z,-1.36
2019-01-24T20:28:20.889Z,-1.36
2019-01-24T20:30:50.376Z,-1.32
2019-01-24T20:33:20.184Z,-1.35
2019-01-24T20:35:52.633Z,-1.38
2019-01-24T20:38:21.945Z,-1.36
2019-01-24T20:40:51.447Z,-1.34
2019-01-24T20:43:21.139Z,-1.32
2019-01-24T20:45:50.302Z,-1.30
2019-01-24T20:48:19.756Z,-1.31
2019-01-24T20:50:49.280Z,-1.34
2019-01-24T20:53:18.940Z,-1.32
2019-01-24T20:55:48.637Z,-1.34
2019-01-24T20:58:17.918Z,-1.35
2019-01-24T21:00:47.100Z,-1.37
2019-01-24T21:03:16.174Z,-1.40
2019-01-24T21:05:45.541Z,-1.35
2019-01-24T21:08:15.083Z,-1.36
2019-01-24T21:10:44.438Z,-1.34
2019-01-24T21:13:13.777Z,-1.34
2019-01-24T21:15:43.324Z,-1.37
2019-01-24T21:18:12.477Z,-1.34
2019-01-24T21:20:41.748Z,-1.31
2019-01-24T21:23:11.068Z,-1.33
2019-01-24T21:25:40.645Z,-1.32
2019-01-24T21:28:10.324Z,-1.32
2019-01-24T21:30:39.576Z,-1.27
2019-01-24T21:33:09.270Z,-1.30
2019-01-24T21:35:38.771Z,-1.30
2019-01-24T21:38:09.001Z,-1.31
2019-01-24T21:40:38.116Z,-1.20
2019-01-24T21:43:07.684Z,-1.22
2019-01-24T21:45:37.417Z,-1.24
2019-01-24T21:48:08.125Z,-1.28
2019-01-24T21:50:37.392Z,-1.28
2019-01-24T21:53:07.411Z,-1.36
2019-01-24T21:55:36.539Z,-1.34
2019-01-24T21:58:07.677Z,-1.30
2019-01-24T22:00:36.974Z,-1.26
2019-01-24T22:03:07.144Z,-1.22
2019-01-24T22:05:37.351Z,-1.22
2019-01-24T22:08:06.858Z,-1.27
2019-01-24T22:10:36.594Z,-1.29
2019-01-24T22:13:06.677Z,-1.31
2019-01-24T22:15:36.026Z,-1.25
2019-01-24T22:18:06.208Z,-1.16
2019-01-24T22:20:35.553Z,-1.10
2019-01-24T22:23:06.200Z,-1.13
2019-01-24T22:25:36.342Z,-1.09
2019-01-24T22:28:06.494Z,-1.14
2019-01-24T22:30:46.938Z,-1.11
2019-01-24T22:33:16.357Z,-1.18
2019-01-24T22:35:45.846Z,-1.19
2019-01-24T22:38:17.391Z,-1.24
2019-01-24T22:40:46.923Z,-1.31
2019-01-24T22:43:16.153Z,-1.32
2019-01-24T22:45:45.419Z,-1.32
2019-01-24T22:48:15.434Z,-1.32
2019-01-24T22:50:45.206Z,-1.33
2019-01-24T22:53:15.015Z,-1.38
2019-01-24T22:55:46.648Z,-1.40
2019-01-24T22:58:16.402Z,-1.39
2019-01-24T23:01:13.002Z,-1.32
2019-01-24T23:03:48.425Z,-1.32
2019-01-24T23:06:17.796Z,-1.34
2019-01-24T23:08:47.398Z,-1.33
2019-01-24T23:11:16.517Z,-1.32
2019-01-24T23:13:45.896Z,-1.34
2019-01-24T23:16:15.371Z,-1.30
2019-01-24T23:18:44.574Z,-1.34
2019-01-24T23:21:14.330Z,-1.35
2019-01-24T23:23:43.538Z,-1.34
2019-01-24T23:26:14.057Z,-1.29
2019-01-24T23:28:43.150Z,-1.22
2019-01-24T23:31:12.347Z,-1.27
2019-01-24T23:33:41.831Z,-1.27
2019-01-24T23:36:10.954Z,-1.24
2019-01-24T23:38:40.431Z,-1.24
2019-01-24T23:41:09.929Z,-1.30
2019-01-24T23:43:40.732Z,-1.28
2019-01-24T23:46:10.383Z,-1.27
2019-01-24T23:48:39.644Z,-1.26
2019-01-24T23:51:08.810Z,-1.28
2019-01-24T23:53:38.292Z,-1.29
2019-01-24T23:56:10.144Z,-1.36
2019-01-24T23:58:39.658Z,-1.40
